createdAt,value
2022-11-30T00:01:33.249Z,3.90
2022-11-30T00:04:01.086Z,3.97
2022-11-30T00:06:28.911Z,3.53
2022-11-30T00:08:59.740Z,3.90
2022-11-30T00:11:29.695Z,3.50
2022-11-30T00:13:57.826Z,3.90
2022-11-30T00:16:27.280Z,3.80
2022-11-30T00:18:55.334Z,3.43
2022-11-30T00:21:23.186Z,3.57
2022-11-30T00:23:51.081Z,3.20
2022-11-30T00:26:22.414Z,4.17
2022-11-30T00:28:50.740Z,3.90
2022-11-30T00:31:19.686Z,3.57
2022-11-30T00:33:47.722Z,3.80
2022-11-30T00:36:17.251Z,3.60
2022-11-30T00:38:45.818Z,3.43
2022-11-30T00:41:14.505Z,3.40
2022-11-30T00:43:44.027Z,4.27
2022-11-30T00:46:12.517Z,3.70
2022-11-30T00:48:41.804Z,3.50
2022-11-30T00:51:11.257Z,3.80
2022-11-30T00:53:39.899Z,3.80
2022-11-30T00:56:08.976Z,3.67
2022-11-30T00:58:36.811Z,3.07
2022-11-30T01:01:06.466Z,4.13
2022-11-30T01:03:34.874Z,4.13
2022-11-30T01:06:03.755Z,3.70
2022-11-30T01:08:31.665Z,4.37
2022-11-30T01:11:06.558Z,3.53
2022-11-30T01:13:34.532Z,4.10
2022-11-30T01:16:02.431Z,3.27
2022-11-30T01:18:31.657Z,3.93
2022-11-30T01:20:59.488Z,4.50
2022-11-30T01:23:27.328Z,3.77
2022-11-30T01:25:56.030Z,3.63
2022-11-30T01:28:23.958Z,4.00
2022-11-30T01:30:58.133Z,3.60
2022-11-30T01:33:26.199Z,3.90
2022-11-30T01:36:02.834Z,3.97
2022-11-30T01:38:33.969Z,3.53
2022-11-30T01:41:01.962Z,4.57
2022-11-30T01:43:42.125Z,3.53
2022-11-30T01:46:23.188Z,4.50
2022-11-30T01:48:56.764Z,3.67
2022-11-30T01:51:28.783Z,4.17
2022-11-30T01:53:56.864Z,4.20
2022-11-30T01:56:24.916Z,3.80
2022-11-30T01:58:52.775Z,3.13
2022-11-30T02:01:20.641Z,3.97
2022-11-30T02:03:53.987Z,3.40
2022-11-30T02:06:23.433Z,4.03
2022-11-30T02:08:53.778Z,3.60
2022-11-30T02:11:22.304Z,3.60
2022-11-30T02:14:15.445Z,4.23
2022-11-30T02:16:54.222Z,4.10
2022-11-30T02:19:58.818Z,3.77
2022-11-30T02:22:39.798Z,3.53
2022-11-30T02:25:19.249Z,3.67
2022-11-30T02:28:09.075Z,3.60
2022-11-30T02:30:41.733Z,3.30
2022-11-30T02:33:13.280Z,3.80
2022-11-30T02:35:47.124Z,3.73
2022-11-30T02:38:21.810Z,3.70
2022-11-30T02:40:49.647Z,3.43
2022-11-30T02:43:19.186Z,3.83
2022-11-30T02:45:55.901Z,3.93
2022-11-30T02:48:33.513Z,3.80
2022-11-30T02:51:03.917Z,4.00
2022-11-30T02:53:32.017Z,4.03
2022-11-30T02:56:00.045Z,3.70
2022-11-30T02:58:28.062Z,3.93
2022-11-30T03:00:57.618Z,3.63
2022-11-30T03:03:25.449Z,3.10
2022-11-30T03:05:53.426Z,4.10
2022-11-30T03:08:21.278Z,3.83
2022-11-30T03:10:49.257Z,3.50
2022-11-30T03:13:17.088Z,4.00
2022-11-30T03:15:45.001Z,4.27
2022-11-30T03:18:14.654Z,3.83
2022-11-30T03:20:43.203Z,4.27
2022-11-30T03:23:11.495Z,4.30
2022-11-30T03:25:39.476Z,3.97
2022-11-30T03:28:07.474Z,3.90
2022-11-30T03:30:35.394Z,4.13
2022-11-30T03:33:03.254Z,3.77
2022-11-30T03:35:32.513Z,3.97
2022-11-30T03:38:00.343Z,3.90
2022-11-30T03:40:29.229Z,4.63
2022-11-30T03:42:57.061Z,4.23
2022-11-30T03:45:24.893Z,3.33
2022-11-30T03:47:52.718Z,4.03
2022-11-30T03:50:20.542Z,4.70
2022-11-30T03:52:49.893Z,4.60
2022-11-30T03:55:17.771Z,4.33
2022-11-30T03:57:45.609Z,4.43
2022-11-30T04:00:14.492Z,4.20
2022-11-30T04:02:44.976Z,3.40
2022-11-30T04:05:13.469Z,3.70
2022-11-30T04:07:41.392Z,3.87
2022-11-30T04:10:12.205Z,3.90
2022-11-30T04:12:40.107Z,3.70
2022-11-30T04:15:09.205Z,3.50
2022-11-30T04:17:37.058Z,3.57
2022-11-30T04:20:05.688Z,3.83
2022-11-30T04:22:34.287Z,3.77
2022-11-30T04:25:02.155Z,3.90
2022-11-30T04:27:31.343Z,3.60
2022-11-30T04:29:59.193Z,3.97
2022-11-30T04:32:27.046Z,3.43
2022-11-30T04:34:54.918Z,3.77
2022-11-30T04:37:22.768Z,3.80
2022-11-30T04:39:50.981Z,3.33
2022-11-30T04:42:18.812Z,4.00
2022-11-30T04:44:48.163Z,3.77
2022-11-30T04:47:16.271Z,3.40
2022-11-30T04:49:44.108Z,4.50
2022-11-30T04:52:11.940Z,3.97
2022-11-30T04:54:39.748Z,3.60
2022-11-30T04:57:07.568Z,3.50
2022-11-30T04:59:35.426Z,3.33
2022-11-30T05:02:04.723Z,3.27
2022-11-30T05:04:32.616Z,4.27
2022-11-30T05:07:00.494Z,3.80
2022-11-30T05:09:28.461Z,3.80
2022-11-30T05:11:56.343Z,3.97
2022-11-30T05:14:24.241Z,3.37
2022-11-30T05:16:52.088Z,3.93
2022-11-30T05:19:21.260Z,3.63
2022-11-30T05:21:49.089Z,3.67
2022-11-30T05:24:17.173Z,3.80
2022-11-30T05:26:45.012Z,3.50
2022-11-30T05:29:12.858Z,3.73
2022-11-30T05:31:40.934Z,3.37
2022-11-30T05:34:08.926Z,3.63
2022-11-30T05:36:38.140Z,4.03
2022-11-30T05:39:06.194Z,3.73
2022-11-30T05:41:34.032Z,3.50
2022-11-30T05:44:02.068Z,3.93
2022-11-30T05:46:29.993Z,3.37
2022-11-30T05:48:57.885Z,3.63
2022-11-30T05:51:25.758Z,3.80
2022-11-30T05:53:54.954Z,3.37
2022-11-30T05:56:23.276Z,3.50
2022-11-30T05:58:51.117Z,3.30
2022-11-30T06:01:20.599Z,3.10
2022-11-30T06:03:48.589Z,3.90
2022-11-30T06:06:16.684Z,3.33
2022-11-30T06:08:45.287Z,3.73
2022-11-30T06:11:15.016Z,3.60
2022-11-30T06:13:42.905Z,3.30
2022-11-30T06:16:11.125Z,3.87
2022-11-30T06:18:39.417Z,4.00
2022-11-30T06:21:09.334Z,4.20
2022-11-30T06:23:37.737Z,3.80
2022-11-30T06:26:06.356Z,4.00
2022-11-30T06:28:36.373Z,3.60
2022-11-30T06:31:06.557Z,3.70
2022-11-30T06:33:36.572Z,3.50
2022-11-30T06:36:05.059Z,3.67
2022-11-30T06:38:32.956Z,3.70
2022-11-30T06:41:06.563Z,3.17
2022-11-30T06:43:37.705Z,3.17
2022-11-30T06:46:07.036Z,3.57
2022-11-30T06:48:35.363Z,3.93
2022-11-30T06:51:05.896Z,3.10
2022-11-30T06:53:33.773Z,3.27
2022-11-30T06:56:10.088Z,3.67
2022-11-30T06:58:40.793Z,3.50
2022-11-30T07:01:10.693Z,3.60
2022-11-30T07:03:38.702Z,3.73
2022-11-30T07:06:09.166Z,3.20
2022-11-30T07:08:37.109Z,3.30
2022-11-30T07:11:05.234Z,3.53
2022-11-30T07:13:33.087Z,4.20
2022-11-30T07:16:04.668Z,3.73
2022-11-30T07:18:32.822Z,4.07
2022-11-30T07:21:01.337Z,3.63
2022-11-30T07:23:52.296Z,2.83
2022-11-30T07:26:23.907Z,3.10
2022-11-30T07:28:54.802Z,3.40
2022-11-30T07:31:25.706Z,3.80
2022-11-30T07:33:54.477Z,3.80
2022-11-30T07:36:24.002Z,3.10
2022-11-30T07:38:52.144Z,3.70
2022-11-30T07:41:20.038Z,3.10
2022-11-30T07:43:47.874Z,3.87
2022-11-30T07:46:17.303Z,2.97
2022-11-30T07:48:47.319Z,3.90
2022-11-30T07:51:17.573Z,3.60
2022-11-30T07:53:45.431Z,3.37
2022-11-30T07:56:15.245Z,3.17
2022-11-30T07:58:43.962Z,2.67
2022-11-30T08:01:14.721Z,3.20
2022-11-30T08:03:43.212Z,3.53
2022-11-30T08:06:15.254Z,3.40
2022-11-30T08:08:45.653Z,3.50
2022-11-30T08:11:15.174Z,3.43
2022-11-30T08:13:43.478Z,3.23
2022-11-30T08:16:13.865Z,3.27
2022-11-30T08:18:42.685Z,3.50
2022-11-30T08:21:14.204Z,3.50
2022-11-30T08:23:43.761Z,3.67
2022-11-30T08:26:13.885Z,3.07
2022-11-30T08:28:42.941Z,3.27
2022-11-30T08:31:14.594Z,3.07
2022-11-30T08:33:42.657Z,3.90
2022-11-30T08:36:13.968Z,3.57
2022-11-30T08:38:43.170Z,3.50
2022-11-30T08:41:12.932Z,3.73
2022-11-30T08:43:41.086Z,2.83
2022-11-30T08:49:20.472Z,3.60
2022-11-30T08:52:16.039Z,3.37
2022-11-30T08:54:36.600Z,3.40
2022-11-30T08:57:04.601Z,3.27
2022-11-30T08:59:32.745Z,4.07
2022-11-30T09:02:00.650Z,3.70
2022-11-30T09:04:28.678Z,3.90
2022-11-30T09:06:59.209Z,3.60
2022-11-30T09:09:28.091Z,3.60
2022-11-30T09:11:55.958Z,3.53
2022-11-30T09:14:24.026Z,3.00
2022-11-30T09:16:51.940Z,3.80
2022-11-30T09:19:19.941Z,3.30
2022-11-30T09:21:51.915Z,2.73
2022-11-30T09:24:21.911Z,3.40
2022-11-30T09:26:49.868Z,3.33
2022-11-30T09:29:17.797Z,3.17
2022-11-30T09:31:45.749Z,3.30
2022-11-30T09:34:13.665Z,3.43
2022-11-30T09:36:41.712Z,3.30
2022-11-30T09:39:10.920Z,3.70
2022-11-30T09:42:03.054Z,3.33
2022-11-30T09:44:39.797Z,3.50
2022-11-30T09:47:18.407Z,3.23
2022-11-30T09:49:48.548Z,3.20
2022-11-30T09:52:19.962Z,3.27
2022-11-30T09:54:49.187Z,3.13
2022-11-30T09:57:27.612Z,3.67
2022-11-30T09:59:57.921Z,3.53
2022-11-30T10:02:30.149Z,3.20
2022-11-30T10:04:59.118Z,3.47
2022-11-30T10:07:41.213Z,3.37
2022-11-30T10:10:32.357Z,3.33
2022-11-30T10:13:13.878Z,3.43
2022-11-30T10:15:54.389Z,3.27
2022-11-30T10:18:33.313Z,2.83
2022-11-30T10:21:09.736Z,3.27
2022-11-30T10:23:57.121Z,3.33
2022-11-30T10:26:31.159Z,3.63
2022-11-30T10:29:06.663Z,3.10
2022-11-30T10:31:36.883Z,3.27
2022-11-30T10:34:19.246Z,3.30
2022-11-30T10:36:53.202Z,3.50
2022-11-30T10:39:25.541Z,3.40
2022-11-30T10:41:57.713Z,3.60
2022-11-30T10:44:30.957Z,3.00
2022-11-30T10:47:03.669Z,3.53
2022-11-30T10:49:33.794Z,3.10
2022-11-30T10:52:05.738Z,3.00
2022-11-30T10:54:36.044Z,3.20
2022-11-30T10:57:05.590Z,3.43
2022-11-30T10:59:42.258Z,3.40
2022-11-30T11:02:39.059Z,3.00
2022-11-30T11:05:18.224Z,3.10
2022-11-30T11:07:52.088Z,2.97
2022-11-30T11:10:22.896Z,3.20
2022-11-30T11:12:53.173Z,2.73
2022-11-30T11:15:24.795Z,3.00
2022-11-30T11:17:54.104Z,3.13
2022-11-30T11:20:36.323Z,3.10
2022-11-30T11:23:05.612Z,3.53
2022-11-30T11:25:36.115Z,3.10
2022-11-30T11:28:09.601Z,3.33
2022-11-30T11:30:39.144Z,2.83
2022-11-30T11:33:21.680Z,3.07
2022-11-30T11:35:51.160Z,2.60
2022-11-30T11:38:24.261Z,2.73
2022-11-30T11:40:56.909Z,3.20
2022-11-30T11:43:26.582Z,2.90
2022-11-30T11:45:58.805Z,3.30
2022-11-30T11:48:34.708Z,3.40
2022-11-30T11:51:07.227Z,3.30
2022-11-30T11:53:51.597Z,3.30
2022-11-30T11:56:27.071Z,3.10
2022-11-30T11:58:59.891Z,2.77
2022-11-30T12:01:44.539Z,2.70
2022-11-30T12:04:42.708Z,2.87
2022-11-30T12:07:28.489Z,3.10
2022-11-30T12:10:43.667Z,3.20
2022-11-30T12:13:01.095Z,3.00
2022-11-30T12:15:37.726Z,2.37
2022-11-30T12:18:23.603Z,2.97
2022-11-30T12:20:59.099Z,2.87
2022-11-30T12:23:55.237Z,3.10
2022-11-30T12:26:30.649Z,2.90
2022-11-30T12:29:19.017Z,2.80
2022-11-30T12:32:01.418Z,2.63
2022-11-30T12:34:43.948Z,2.80
2022-11-30T12:37:21.216Z,2.77
2022-11-30T12:39:58.037Z,2.57
2022-11-30T12:42:36.581Z,2.60
2022-11-30T12:45:11.414Z,3.20
2022-11-30T12:47:50.074Z,2.90
2022-11-30T12:50:38.029Z,3.53
2022-11-30T12:53:14.353Z,3.03
2022-11-30T12:55:49.615Z,3.20
2022-11-30T12:58:22.799Z,2.93
2022-11-30T13:01:05.103Z,2.93
2022-11-30T13:03:51.898Z,3.10
2022-11-30T13:06:25.715Z,2.93
2022-11-30T13:08:59.887Z,3.03
2022-11-30T13:11:33.172Z,2.90
2022-11-30T13:14:02.067Z,3.10
2022-11-30T13:16:31.837Z,2.67
2022-11-30T13:19:08.737Z,2.63
2022-11-30T13:21:43.065Z,3.17
2022-11-30T13:24:17.559Z,2.60
2022-11-30T13:26:51.635Z,2.83
2022-11-30T13:29:56.433Z,3.13
2022-11-30T13:35:52.077Z,3.10
2022-11-30T13:38:38.740Z,3.00
2022-11-30T13:41:09.376Z,2.83
2022-11-30T13:43:41.591Z,2.53
2022-11-30T13:46:16.374Z,2.80
2022-11-30T13:48:45.662Z,3.10
2022-11-30T13:51:14.442Z,2.97
2022-11-30T13:53:44.109Z,2.97
2022-11-30T13:56:35.894Z,2.77
2022-11-30T13:59:40.671Z,2.67
2022-11-30T14:02:53.782Z,2.63
2022-11-30T14:05:44.230Z,3.33
2022-11-30T14:08:33.419Z,2.80
2022-11-30T14:11:36.745Z,2.83
2022-11-30T14:14:53.304Z,2.53
2022-11-30T14:17:26.869Z,2.97
2022-11-30T14:19:59.219Z,2.70
2022-11-30T14:22:28.198Z,2.70
2022-11-30T14:24:57.420Z,2.97
2022-11-30T14:27:28.232Z,3.00
2022-11-30T14:30:03.090Z,2.80
2022-11-30T14:32:37.871Z,2.43
2022-11-30T14:35:11.975Z,2.67
2022-11-30T14:37:45.125Z,2.60
2022-11-30T14:40:19.403Z,2.40
2022-11-30T14:42:50.994Z,2.53
2022-11-30T14:45:24.650Z,3.00
2022-11-30T14:48:04.631Z,2.77
2022-11-30T14:50:33.229Z,2.90
2022-11-30T14:53:10.244Z,2.30
2022-11-30T14:55:45.029Z,2.50
2022-11-30T14:58:22.314Z,3.00
2022-11-30T15:00:51.120Z,2.63
2022-11-30T15:03:25.765Z,2.53
2022-11-30T15:05:55.656Z,3.00
2022-11-30T15:08:24.905Z,2.53
2022-11-30T15:10:53.159Z,2.70
2022-11-30T15:13:21.510Z,3.00
2022-11-30T15:15:54.421Z,2.70
2022-11-30T15:18:25.705Z,2.97
2022-11-30T15:20:57.829Z,2.33
2022-11-30T15:23:25.890Z,3.37
2022-11-30T15:25:57.481Z,2.47
2022-11-30T15:28:31.687Z,3.00
2022-11-30T15:31:03.485Z,2.90
2022-11-30T15:33:36.379Z,2.97
2022-11-30T15:36:19.154Z,2.70
2022-11-30T15:38:53.270Z,2.40
2022-11-30T15:41:23.420Z,2.67
2022-11-30T15:43:54.201Z,2.63
2022-11-30T15:46:34.477Z,3.40
2022-11-30T15:49:15.911Z,2.80
2022-11-30T15:51:46.348Z,2.77
2022-11-30T15:54:15.362Z,2.30
2022-11-30T15:56:55.459Z,3.10
2022-11-30T15:59:24.920Z,2.50
2022-11-30T16:02:01.794Z,2.67
2022-11-30T16:05:15.544Z,2.67
2022-11-30T16:07:50.678Z,2.20
2022-11-30T16:10:21.869Z,2.60
2022-11-30T16:12:50.980Z,2.37
2022-11-30T16:15:21.155Z,2.90
2022-11-30T16:17:49.060Z,2.07
2022-11-30T16:20:20.831Z,2.90
2022-11-30T16:22:49.537Z,2.87
2022-11-30T16:25:19.490Z,2.40
2022-11-30T16:27:48.551Z,3.17
2022-11-30T16:30:18.435Z,2.60
2022-11-30T16:32:46.357Z,2.90
2022-11-30T16:35:22.763Z,2.77
2022-11-30T16:37:51.216Z,2.90
2022-11-30T16:40:21.139Z,2.43
2022-11-30T16:42:51.607Z,2.67
2022-11-30T16:45:22.238Z,2.67
2022-11-30T16:47:50.922Z,2.70
2022-11-30T16:50:20.801Z,2.70
2022-11-30T16:52:48.870Z,2.40
2022-11-30T16:55:18.954Z,3.40
2022-11-30T16:57:47.598Z,2.57
2022-11-30T17:00:18.243Z,2.63
2022-11-30T17:02:49.997Z,2.77
2022-11-30T17:05:18.292Z,3.13
2022-11-30T17:07:47.598Z,2.70
2022-11-30T17:10:15.875Z,2.67
2022-11-30T17:12:43.774Z,3.07
2022-11-30T17:15:16.496Z,2.60
2022-11-30T17:17:44.476Z,2.70
2022-11-30T17:20:13.947Z,2.87
2022-11-30T17:22:42.047Z,2.93
2022-11-30T17:25:16.104Z,2.97
2022-11-30T17:27:44.327Z,2.63
2022-11-30T17:30:13.706Z,2.90
2022-11-30T17:32:41.894Z,2.97
2022-11-30T17:35:10.490Z,2.90
2022-11-30T17:37:38.519Z,3.00
2022-11-30T17:40:08.352Z,2.40
2022-11-30T17:42:37.540Z,2.53
2022-11-30T17:45:06.450Z,2.83
2022-11-30T17:47:34.333Z,2.67
2022-11-30T17:50:02.311Z,3.27
2022-11-30T17:52:30.200Z,3.17
2022-11-30T17:54:58.062Z,2.60
2022-11-30T17:57:25.952Z,3.00
2022-11-30T17:59:55.261Z,2.87
2022-11-30T18:02:23.348Z,2.93
2022-11-30T18:04:52.523Z,2.90
2022-11-30T18:07:21.106Z,2.17
2022-11-30T18:09:48.987Z,3.10
2022-11-30T18:12:16.864Z,2.70
2022-11-30T18:14:44.742Z,2.20
2022-11-30T18:17:13.945Z,2.50
2022-11-30T18:19:41.855Z,3.00
2022-11-30T18:22:09.688Z,2.43
2022-11-30T18:24:37.589Z,3.10
2022-11-30T18:27:05.542Z,2.77
2022-11-30T18:29:33.437Z,2.80
2022-11-30T18:32:01.485Z,2.80
2022-11-30T18:34:30.736Z,2.53
2022-11-30T18:36:58.680Z,2.23
2022-11-30T18:39:26.557Z,2.70
2022-11-30T18:41:54.442Z,2.73
2022-11-30T18:44:23.173Z,2.83
2022-11-30T18:46:51.036Z,2.43
2022-11-30T18:49:20.851Z,2.77
2022-11-30T18:51:50.334Z,2.30
2022-11-30T18:54:19.139Z,3.40
2022-11-30T18:56:47.059Z,2.53
2022-11-30T18:59:15.962Z,2.60
2022-11-30T19:01:43.952Z,2.23
2022-11-30T19:04:12.510Z,2.40
2022-11-30T19:06:41.804Z,3.03
2022-11-30T19:09:12.657Z,2.17
2022-11-30T19:11:41.502Z,2.77
2022-11-30T19:14:11.336Z,2.57
2022-11-30T19:16:39.237Z,3.00
2022-11-30T19:19:10.208Z,2.30
2022-11-30T19:21:38.056Z,2.40
2022-11-30T19:24:06.576Z,2.90
2022-11-30T19:26:36.178Z,2.40
2022-11-30T19:29:04.093Z,2.43
2022-11-30T19:31:31.978Z,2.20
2022-11-30T19:33:59.969Z,2.87
2022-11-30T19:36:29.278Z,3.07
2022-11-30T19:38:59.754Z,1.93
2022-11-30T19:41:28.248Z,2.40
2022-11-30T19:44:03.169Z,2.90
2022-11-30T19:46:33.070Z,2.43
2022-11-30T19:49:02.593Z,2.27
2022-11-30T19:51:31.355Z,2.40
2022-11-30T19:54:00.242Z,2.57
2022-11-30T19:56:29.487Z,2.70
2022-11-30T19:59:04.696Z,2.77
2022-11-30T20:01:33.990Z,2.53
2022-11-30T20:04:02.173Z,2.70
2022-11-30T20:06:31.769Z,2.57
2022-11-30T20:08:59.661Z,3.03
2022-11-30T20:11:27.597Z,2.67
2022-11-30T20:13:55.621Z,2.57
2022-11-30T20:16:24.911Z,2.57
2022-11-30T20:18:54.731Z,3.20
2022-11-30T20:21:24.882Z,2.87
2022-11-30T20:23:54.613Z,2.97
2022-11-30T20:26:24.416Z,2.50
2022-11-30T20:28:53.246Z,2.53
2022-11-30T20:31:22.738Z,2.10
2022-11-30T20:33:52.425Z,2.77
2022-11-30T20:36:21.373Z,2.57
2022-11-30T20:38:49.551Z,2.90
2022-11-30T20:41:19.897Z,2.93
2022-11-30T20:43:48.754Z,2.60
2022-11-30T20:46:18.131Z,2.67
2022-11-30T20:48:46.790Z,2.67
2022-11-30T20:51:34.111Z,3.37
2022-11-30T20:54:06.725Z,2.10
2022-11-30T20:56:37.014Z,2.70
2022-11-30T20:59:06.863Z,2.27
2022-11-30T21:01:35.045Z,2.27
2022-11-30T21:04:02.970Z,2.10
2022-11-30T21:06:32.813Z,2.33
2022-11-30T21:09:01.274Z,3.07
2022-11-30T21:11:30.292Z,2.57
2022-11-30T21:13:59.163Z,2.77
2022-11-30T21:16:29.441Z,2.73
2022-11-30T21:18:58.694Z,1.90
2022-11-30T21:21:28.777Z,2.60
2022-11-30T21:23:58.779Z,2.30
2022-11-30T21:26:28.051Z,2.47
2022-11-30T21:28:59.780Z,2.60
2022-11-30T21:31:27.880Z,2.97
2022-11-30T21:33:55.763Z,2.17
2022-11-30T21:36:24.476Z,2.47
2022-11-30T21:39:04.447Z,2.70
2022-11-30T21:41:33.361Z,2.20
2022-11-30T21:44:01.267Z,2.20
2022-11-30T21:46:29.700Z,2.33
2022-11-30T21:48:57.631Z,2.60
2022-11-30T21:51:27.467Z,2.43
2022-11-30T21:54:00.508Z,2.50
2022-11-30T21:56:29.884Z,2.70
2022-11-30T21:58:58.483Z,2.50
2022-11-30T22:01:28.900Z,2.47
2022-11-30T22:03:58.969Z,2.43
2022-11-30T22:06:28.274Z,2.80
2022-11-30T22:09:03.396Z,2.53
2022-11-30T22:11:32.245Z,2.53
2022-11-30T22:14:00.172Z,2.50
2022-11-30T22:16:35.352Z,2.77
2022-11-30T22:19:06.730Z,2.80
2022-11-30T22:21:35.474Z,2.37
2022-11-30T22:24:06.736Z,2.40
2022-11-30T22:26:36.635Z,2.50
2022-11-30T22:29:07.277Z,2.47
2022-11-30T22:31:37.366Z,2.63
2022-11-30T22:34:06.018Z,2.03
2022-11-30T22:36:35.373Z,2.70
2022-11-30T22:39:07.670Z,2.83
2022-11-30T22:41:35.828Z,2.50
2022-11-30T22:44:04.447Z,2.60
2022-11-30T22:46:33.999Z,2.40
2022-11-30T22:49:02.821Z,2.40
2022-11-30T22:51:32.374Z,2.50
2022-11-30T22:54:01.289Z,2.97
2022-11-30T22:56:32.243Z,2.30
2022-11-30T22:59:01.283Z,2.80
2022-11-30T23:01:31.160Z,2.50
2022-11-30T23:04:03.064Z,2.77
2022-11-30T23:06:31.411Z,2.33
2022-11-30T23:08:59.434Z,2.10
2022-11-30T23:11:28.105Z,2.70
2022-11-30T23:13:57.483Z,2.70
2022-11-30T23:16:25.990Z,2.27
2022-11-30T23:18:55.651Z,2.93
2022-11-30T23:21:25.439Z,2.80
2022-11-30T23:23:53.841Z,3.10
2022-11-30T23:26:23.901Z,2.70
2022-11-30T23:28:53.062Z,2.10
2022-11-30T23:31:34.465Z,2.50
2022-11-30T23:34:04.870Z,2.90
2022-11-30T23:36:33.343Z,2.53
2022-11-30T23:39:03.555Z,2.77
2022-11-30T23:41:31.621Z,2.80
2022-11-30T23:43:59.714Z,2.93
2022-11-30T23:46:29.148Z,2.60
2022-11-30T23:48:57.108Z,3.00
2022-11-30T23:51:25.640Z,2.33
2022-11-30T23:53:53.648Z,2.87
2022-11-30T23:56:23.226Z,2.33
2022-11-30T23:58:51.462Z,3.30
